WXForecasting.com
Aberdeen, SD - Weather Station Data
 
Daily Summary for June 27, 2017 Units:  English    Metric   Both
« Previous Day
Next Day »
Daily Weekly Monthly Yearly Custom
  Current: High: Low: Average:
Temperature: 77.1 °F 83.8 °F 48.8 °F 68.1 °F
Dew Point: 61.0 °F 61.0 °F 41.0 °F 49 °F
Humidity: 58 % 79 % 31 % 53 %
Wind Speed: 7.0 mph 18.0 mph 0.0 mph 5.6 mph
Wind Gust: 17.0 mph 26.0 mph - -
Wind:ESE - - SSE
Pressure: 29.51 in 30.07 in 29.51 in -
Precipitation: 0.00 in      
Historical Graphs
 
 
Tabular Data for June 27, 2017
Time Temperature Dew Point Pressure Wind Wind Speed Wind Gust Humidity Rainfall Rate (Hourly) solar Conditions
00:09 56.7 °F 42.0 °F 30.07 in SE 3.0 mph 4.0 mph 58 % 0.00 in 0 W/m2
00:24 56.8 °F 42.0 °F 30.07 in Calm   4.0 mph 58 % 0.00 in 0 W/m2
00:39 56.5 °F 42.0 °F 30.07 in Calm   4.0 mph 58 % 0.00 in 0 W/m2
00:54 56.1 °F 42.0 °F 30.06 in Calm   7.0 mph 59 % 0.00 in 0 W/m2
01:09 55.7 °F 41.0 °F 30.06 in South 2.0 mph 3.0 mph 59 % 0.00 in 0 W/m2
01:24 55.3 °F 41.0 °F 30.05 in Calm   5.0 mph 60 % 0.00 in 0 W/m2
01:39 55.0 °F 41.0 °F 30.04 in SSE 1.0 mph 2.0 mph 60 % 0.00 in 0 W/m2
01:54 54.8 °F 41.0 °F 30.05 in SSE 1.0 mph 3.0 mph 60 % 0.00 in 0 W/m2
02:09 54.7 °F 41.0 °F 30.04 in Calm   3.0 mph 61 % 0.00 in 0 W/m2
02:24 54.1 °F 42.0 °F 30.04 in South 1.0 mph 4.0 mph 63 % 0.00 in 0 W/m2
02:39 53.6 °F 42.0 °F 30.03 in Calm   3.0 mph 64 % 0.00 in 0 W/m2
02:54 53.4 °F 41.0 °F 30.03 in SE 1.0 mph 5.0 mph 64 % 0.00 in 0 W/m2
03:09 53.4 °F 42.0 °F 30.02 in Calm   6.0 mph 65 % 0.00 in 0 W/m2
03:24 53.2 °F 42.0 °F 30.02 in SE 3.0 mph 7.0 mph 65 % 0.00 in 0 W/m2
03:40 52.7 °F 42.0 °F 30.01 in Calm   3.0 mph 66 % 0.00 in 0 W/m2
03:54 52.4 °F 42.0 °F 30.01 in SE 1.0 mph 4.0 mph 67 % 0.00 in 0 W/m2
04:10 51.7 °F 42.0 °F 30.01 in SSE 1.0 mph 3.0 mph 69 % 0.00 in 0 W/m2
04:25 51.1 °F 42.0 °F 30.00 in SSE 1.0 mph 3.0 mph 70 % 0.00 in 0 W/m2
04:40 50.4 °F 42.0 °F 29.99 in SSE 2.0 mph 2.0 mph 72 % 0.00 in 0 W/m2
04:55 50.0 °F 42.0 °F 29.99 in Calm   2.0 mph 73 % 0.00 in 0 W/m2
05:10 49.4 °F 41.0 °F 30.00 in Calm   5.0 mph 74 % 0.00 in 0 W/m2
05:25 49.6 °F 42.0 °F 30.00 in Calm   3.0 mph 75 % 0.00 in 0 W/m2
05:40 49.3 °F 42.0 °F 29.99 in Calm   2.0 mph 75 % 0.00 in 0 W/m2
05:55 49.0 °F 42.0 °F 29.98 in Calm   3.0 mph 76 % 0.00 in 7 W/m2
06:10 48.8 °F 42.0 °F 29.98 in Calm   3.0 mph 77 % 0.00 in 26 W/m2
06:25 49.0 °F 43.0 °F 29.98 in SE 1.0 mph 4.0 mph 79 % 0.00 in 33 W/m2
06:40 49.4 °F 43.0 °F 29.97 in Calm   4.0 mph 78 % 0.00 in 40 W/m2
06:55 50.8 °F 43.0 °F 29.96 in Calm   6.0 mph 75 % 0.00 in 84 W/m2
07:10 53.3 °F 44.0 °F 29.96 in SSE 2.0 mph 6.0 mph 71 % 0.00 in 113 W/m2
07:25 55.1 °F 45.0 °F 29.95 in SE 4.0 mph 6.0 mph 69 % 0.00 in 113 W/m2
07:40 56.2 °F 45.0 °F 29.95 in SSE 3.0 mph 8.0 mph 66 % 0.00 in 127 W/m2
07:55 57.2 °F 45.0 °F 29.95 in South 4.0 mph 11.0 mph 64 % 0.00 in 146 W/m2
08:10 58.5 °F 46.0 °F 29.94 in SE 7.0 mph 10.0 mph 63 % 0.00 in 237 W/m2
08:25 60.4 °F 47.0 °F 29.93 in South 8.0 mph 10.0 mph 61 % 0.00 in 146 W/m2
08:40 61.8 °F 47.0 °F 29.92 in South 11.0 mph 14.0 mph 58 % 0.00 in 274 W/m2
08:55 62.5 °F 47.0 °F 29.91 in South 4.0 mph 20.0 mph 57 % 0.00 in 279 W/m2
09:11 63.6 °F 47.0 °F 29.91 in South 8.0 mph 17.0 mph 55 % 0.00 in 464 W/m2
09:26 65.7 °F 48.0 °F 29.90 in SSE 6.0 mph 16.0 mph 53 % 0.00 in 534 W/m2
09:41 66.7 °F 48.0 °F 29.89 in SSE 7.0 mph 17.0 mph 52 % 0.00 in 197 W/m2
09:56 67.3 °F 49.0 °F 29.89 in South 11.0 mph 21.0 mph 53 % 0.00 in 737 W/m2
10:11 67.8 °F 49.0 °F 29.87 in South 11.0 mph 26.0 mph 51 % 0.00 in 471 W/m2
10:26 69.3 °F 49.0 °F 29.87 in SSW 15.0 mph 22.0 mph 49 % 0.00 in 798 W/m2
10:41 70.1 °F 49.0 °F 29.85 in SSE 7.0 mph 24.0 mph 48 % 0.00 in 543 W/m2
10:56 70.8 °F 49.0 °F 29.84 in SSW 9.0 mph 24.0 mph 46 % 0.00 in 638 W/m2
11:11 71.3 °F 50.0 °F 29.84 in South 15.0 mph 20.0 mph 47 % 0.00 in 367 W/m2
11:26 73.0 °F 50.0 °F 29.82 in SSE 6.0 mph 20.0 mph 44 % 0.00 in 446 W/m2
11:56 73.2 °F 50.0 °F 29.81 in ESE 7.0 mph 19.0 mph 44 % 0.00 in 459 W/m2
12:11 73.2 °F 51.0 °F 29.80 in SE 7.0 mph 17.0 mph 45 % 0.00 in 422 W/m2
12:26 74.1 °F 51.0 °F 29.80 in SE 9.0 mph 18.0 mph 44 % 0.00 in 527 W/m2
12:41 74.3 °F 50.0 °F 29.79 in SSE 3.0 mph 15.0 mph 43 % 0.00 in 334 W/m2
12:56 76.4 °F 51.0 °F 29.77 in SSE 11.0 mph 20.0 mph 41 % 0.00 in 654 W/m2
13:11 75.6 °F 51.0 °F 29.75 in SE 7.0 mph 17.0 mph 43 % 0.00 in 371 W/m2
13:26 78.4 °F 55.0 °F 29.74 in SE 16.0 mph 17.0 mph 44 % 0.00 in 1150 W/m2
13:41 79.4 °F 52.0 °F 29.73 in SSE 9.0 mph 20.0 mph 39 % 0.00 in 1134 W/m2
13:57 78.3 °F 54.0 °F 29.71 in ESE 10.0 mph 22.0 mph 43 % 0.00 in 577 W/m2
14:12 80.0 °F 52.0 °F 29.71 in SSE 8.0 mph 17.0 mph 38 % 0.00 in 431 W/m2
14:27 80.8 °F 52.0 °F 29.69 in South 11.0 mph 21.0 mph 37 % 0.00 in 1046 W/m2
14:42 80.9 °F 50.0 °F 29.69 in SSW 7.0 mph 20.0 mph 34 % 0.00 in 904 W/m2
14:57 81.6 °F 54.0 °F 29.68 in SE 5.0 mph 20.0 mph 38 % 0.00 in 824 W/m2
15:12 81.4 °F 52.0 °F 29.68 in SSE 9.0 mph 19.0 mph 36 % 0.00 in 851 W/m2
15:27 82.4 °F 51.0 °F 29.67 in South 9.0 mph 24.0 mph 34 % 0.00 in 854 W/m2
15:42 82.7 °F 50.0 °F 29.66 in SSE 10.0 mph 23.0 mph 32 % 0.00 in 773 W/m2
15:57 83.6 °F 51.0 °F 29.65 in SSE 11.0 mph 19.0 mph 32 % 0.00 in 766 W/m2
16:12 83.8 °F 50.0 °F 29.64 in SSE 9.0 mph 25.0 mph 31 % 0.00 in 749 W/m2
16:27 83.4 °F 51.0 °F 29.63 in SE 2.0 mph 21.0 mph 33 % 0.00 in 696 W/m2
16:42 83.5 °F 51.0 °F 29.64 in ESE 12.0 mph 21.0 mph 33 % 0.00 in 682 W/m2
16:57 83.0 °F 53.0 °F 29.64 in SSW 18.0 mph 18.0 mph 36 % 0.00 in 610 W/m2
17:12 83.4 °F 52.0 °F 29.63 in SSE 6.0 mph 22.0 mph 34 % 0.00 in 631 W/m2
17:27 82.6 °F 52.0 °F 29.62 in South 6.0 mph 21.0 mph 35 % 0.00 in 441 W/m2
17:42 82.6 °F 53.0 °F 29.61 in South 11.0 mph 17.0 mph 36 % 0.00 in 241 W/m2
17:57 82.2 °F 55.0 °F 29.60 in SE 14.0 mph 18.0 mph 39 % 0.00 in 450 W/m2
18:12 83.7 °F 55.0 °F 29.59 in SE 15.0 mph 18.0 mph 38 % 0.00 in 497 W/m2
18:27 82.3 °F 56.0 °F 29.59 in South 10.0 mph 19.0 mph 40 % 0.00 in 246 W/m2
18:42 82.7 °F 57.0 °F 29.57 in East 7.0 mph 20.0 mph 42 % 0.00 in 397 W/m2
18:57 83.0 °F 57.0 °F 29.57 in SE 5.0 mph 18.0 mph 41 % 0.00 in 276 W/m2
19:12 82.5 °F 57.0 °F 29.56 in South 3.0 mph 17.0 mph 42 % 0.00 in 125 W/m2
19:27 82.3 °F 58.0 °F 29.56 in ESE 6.0 mph 19.0 mph 43 % 0.00 in 97 W/m2
19:42 82.1 °F 58.0 °F 29.55 in SSE 10.0 mph 17.0 mph 44 % 0.00 in 84 W/m2
19:57 81.5 °F 58.0 °F 29.55 in SSE 5.0 mph 14.0 mph 45 % 0.00 in 58 W/m2
20:12 80.7 °F 57.0 °F 29.54 in SSE 3.0 mph 17.0 mph 45 % 0.00 in 49 W/m2
20:27 79.8 °F 58.0 °F 29.54 in ESE 7.0 mph 15.0 mph 47 % 0.00 in 33 W/m2
20:42 79.2 °F 58.0 °F 29.53 in SSE 2.0 mph 19.0 mph 49 % 0.00 in 19 W/m2
20:57 78.8 °F 59.0 °F 29.55 in SSE 9.0 mph 19.0 mph 50 % 0.00 in 9 W/m2
21:12 78.5 °F 59.0 °F 29.53 in East 3.0 mph 18.0 mph 52 % 0.00 in 5 W/m2
21:27 78.2 °F 60.0 °F 29.52 in SE 11.0 mph 18.0 mph 54 % 0.00 in 0 W/m2
21:42 77.9 °F 60.0 °F 29.51 in ESE 2.0 mph 19.0 mph 55 % 0.00 in 0 W/m2
21:57 77.5 °F 61.0 °F 29.51 in South 1.0 mph 16.0 mph 57 % 0.00 in 0 W/m2
22:12 77.1 °F 61.0 °F 29.51 in ESE 7.0 mph 17.0 mph 58 % 0.00 in 0 W/m2
Compliments of Weather Underground - 2.5 mb

20 Visitors online right now
Max visitors today: 28 at 01:55 am EDT
This month: 117 at 06-05-2017 05:49 pm EDT
This year: 117 at 06-05-2017 05:49 pm EDT
All time: 117 at 06-05-2017 05:49 pm EDT
See Who is Online